Time,TemperatureF,DewpointF,PressureIn,WindDirection,WindDirectionDegrees,WindSpeedMPH,WindSpeedGustMPH,Humidity,HourlyPrecipIn,Conditions,Clouds,dailyrainin,SoftwareType,DateUTC
2013-01-02 00:00:00,16.2,5.8,29.91,WNW,292,0.0,6.0,63,0.00,,---,0.00,VWS V14.01,2013-01-02 04:00:00,
2013-01-02 00:30:00,15.9,5.9,29.91,West,270,0.0,4.0,64,0.00,,---,0.00,VWS V14.01,2013-01-02 04:30:00,
2013-01-02 01:00:00,15.0,5.0,29.91,SSW,202,0.0,2.0,64,0.00,,---,0.00,VWS V14.01,2013-01-02 05:00:00,
2013-01-02 01:30:00,14.5,4.2,29.91,WSW,248,0.0,3.0,63,0.00,,---,0.00,VWS V14.01,2013-01-02 05:30:00,
2013-01-02 02:00:00,13.8,4.9,29.91,SW,225,0.0,3.0,67,0.00,,---,0.00,VWS V14.01,2013-01-02 06:00:00,
2013-01-02 02:30:00,13.4,4.5,29.91,SW,225,0.0,1.0,67,0.00,,---,0.00,VWS V14.01,2013-01-02 06:30:00,
2013-01-02 03:00:00,12.8,4.2,29.92,SW,225,0.0,1.0,68,0.00,,---,0.00,VWS V14.01,2013-01-02 07:00:00,
2013-01-02 03:30:00,12.5,4.0,29.92,SW,225,0.0,1.0,68,0.00,,---,0.00,VWS V14.01,2013-01-02 07:30:00,
2013-01-02 04:00:00,12.2,4.0,29.92,SW,225,0.0,2.0,69,0.00,,---,0.00,VWS V14.01,2013-01-02 08:00:00,
2013-01-02 04:30:00,11.4,3.8,29.91,SW,225,0.0,2.0,71,0.00,,---,0.00,VWS V14.01,2013-01-02 08:30:00,
2013-01-02 05:00:00,11.2,4.5,29.91,SW,225,0.0,1.0,74,0.00,,---,0.00,VWS V14.01,2013-01-02 09:00:00,
2013-01-02 05:30:00,11.0,4.3,29.91,SW,225,0.0,2.0,74,0.00,,---,0.00,VWS V14.01,2013-01-02 09:30:00,
2013-01-02 06:00:00,10.2,3.6,29.91,SW,225,0.0,3.0,74,0.00,,---,0.00,VWS V14.01,2013-01-02 10:00:00,
2013-01-02 06:30:00,9.4,3.4,29.92,SW,225,0.0,1.0,76,0.00,,---,0.00,VWS V14.01,2013-01-02 10:30:00,
2013-01-02 07:00:00,9.4,3.4,29.92,SW,225,0.0,0.0,76,0.00,,---,0.00,VWS V14.01,2013-01-02 11:00:00,
2013-01-02 07:30:00,9.4,3.4,29.92,SW,225,0.0,0.0,76,0.00,,---,0.00,VWS V14.01,2013-01-02 11:30:00,
2013-01-02 08:00:00,9.4,3.4,29.91,SW,225,0.0,0.0,76,0.00,,---,0.00,VWS V14.01,2013-01-02 12:00:00,
2013-01-02 08:30:00,9.4,3.4,29.90,SW,225,0.0,0.0,76,0.00,,---,0.00,VWS V14.01,2013-01-02 12:30:00,
2013-01-02 09:00:00,12.8,5.8,29.89,SW,225,1.0,2.0,73,0.00,,---,0.00,VWS V14.01,2013-01-02 13:00:00,
2013-01-02 09:30:00,14.9,7.2,29.89,SW,225,1.0,4.0,71,0.00,,---,0.00,VWS V14.01,2013-01-02 13:30:00,
2013-01-02 10:00:00,16.8,8.1,29.90,SW,225,2.0,6.0,68,0.00,,---,0.00,VWS V14.01,2013-01-02 14:00:00,
2013-01-02 10:30:00,18.3,9.5,29.91,SW,225,1.0,5.0,68,0.00,,---,0.00,VWS V14.01,2013-01-02 14:30:00,
2013-01-02 11:00:00,21.0,10.8,29.91,SW,225,2.0,5.0,64,0.00,,---,0.00,VWS V14.01,2013-01-02 15:00:00,
2013-01-02 11:30:00,22.9,12.2,29.90,WSW,248,2.0,8.0,63,0.00,,---,0.00,VWS V14.01,2013-01-02 15:30:00,
2013-01-02 12:00:00,24.6,13.8,29.89,SW,225,2.0,7.0,63,0.00,,---,0.00,VWS V14.01,2013-01-02 16:00:00,
2013-01-02 12:30:00,26.3,14.7,29.89,WSW,248,2.0,8.0,61,0.00,,---,0.00,VWS V14.01,2013-01-02 16:30:00,
2013-01-02 13:00:00,25.6,14.4,29.88,WSW,248,3.0,9.0,62,0.00,,---,0.00,VWS V14.01,2013-01-02 17:00:00,
2013-01-02 13:30:00,25.8,15.0,29.88,WSW,248,1.0,8.0,63,0.00,,---,0.00,VWS V14.01,2013-01-02 17:30:00,
2013-01-02 14:00:00,26.1,16.0,29.88,West,270,2.0,6.0,65,0.00,,---,0.00,VWS V14.01,2013-01-02 18:00:00,
2013-01-02 14:30:00,25.3,13.4,29.89,WSW,248,2.0,14.0,60,0.00,,---,0.00,VWS V14.01,2013-01-02 18:30:00,
2013-01-02 15:00:00,24.1,12.2,29.91,NW,315,2.0,11.0,60,0.00,,---,0.00,VWS V14.01,2013-01-02 19:00:00,
2013-01-02 15:30:00,23.9,12.4,29.92,West,270,2.0,10.0,61,0.00,,---,0.00,VWS V14.01,2013-01-02 19:30:00,
2013-01-02 16:00:00,24.4,11.0,29.93,West,270,3.0,15.0,56,0.00,,---,0.00,VWS V14.01,2013-01-02 20:00:00,
2013-01-02 16:30:00,24.0,9.8,29.95,WNW,292,3.0,10.0,54,0.00,,---,0.00,VWS V14.01,2013-01-02 20:30:00,
2013-01-02 17:00:00,22.7,9.4,29.96,WNW,292,2.0,11.0,56,0.00,,---,0.00,VWS V14.01,2013-01-02 21:00:00,
2013-01-02 17:30:00,21.4,8.1,29.98,WNW,292,1.0,7.0,56,0.00,,---,0.00,VWS V14.01,2013-01-02 21:30:00,
2013-01-02 18:00:00,20.4,7.6,30.00,West,270,1.0,9.0,57,0.00,,---,0.00,VWS V14.01,2013-01-02 22:00:00,
2013-01-02 18:30:00,19.8,6.7,30.01,WSW,248,1.0,10.0,56,0.00,,---,0.00,VWS V14.01,2013-01-02 22:30:00,
2013-01-02 19:00:00,18.8,6.1,30.02,West,270,1.0,7.0,57,0.00,,---,0.00,VWS V14.01,2013-01-02 23:00:00,
2013-01-02 19:30:00,17.7,4.7,30.03,WNW,292,2.0,11.0,56,0.00,,---,0.00,VWS V14.01,2013-01-02 23:30:00,
2013-01-02 21:30:00,11.2,-2.2,30.07,West,270,1.0,6.0,54,0.00,,---,0.00,VWS V14.01,2013-01-03 01:30:00,
2013-01-02 22:00:00,9.1,-3.8,30.07,WSW,248,3.0,14.0,55,0.00,,---,0.00,VWS V14.01,2013-01-03 02:00:00,
2013-01-02 22:30:00,7.8,-4.6,30.08,West,270,3.0,15.0,56,0.00,,---,0.00,VWS V14.01,2013-01-03 02:30:00,
2013-01-02 23:00:00,7.3,-4.4,30.08,West,270,1.0,10.0,58,0.00,,---,0.00,VWS V14.01,2013-01-03 03:00:00,
2013-01-02 23:30:00,6.7,-4.6,30.09,West,270,1.0,10.0,59,0.00,,---,0.00,VWS V14.01,2013-01-03 03:30:00,